RoSS Sea — WDE3122 — position and weather

sailwx.info

Track history (hours):
 
Tides and Currents Weather Stations Pressure Air Temp Water Temp Dewpoint Dewpoint Depression Visibility Wind Speed Wind Dir Waves Ship Positions

RoSS Sea

Owner: Kirby Inland Marine, LP, Houston, TX. More information available from US FCC via Universal Licensing System and Coast Guard Vessel Documentation Center.

Last reported at 2018-Jun-24 23:24 UTC. Time now 2018-Jun-25 11:25 UTC.
Position N 38°56' W 076°24'.

Length 30 m; draft 3.8 m.

Type: . MMSI: 367334360.

Date/timePositionNaut miles runAvg speedWind from/ knotsBaromVisibWave heightAir tempDewpointWater temp
2018-Jun-24 23:24N 38°56' W 076°24'28 7.6
2018-Jun-24 19:39N 39°22' W 076°08'1 8.0
2018-Jun-24 19:28N 39°23' W 076°06'4 8.1
2018-Jun-24 19:00N 39°25' W 076°02'4 8.3
2018-Jun-24 18:30N 39°28' W 075°59'4 8.3
2018-Jun-24 18:00N 39°30' W 075°55'4 8.0
2018-Jun-24 17:30N 39°32' W 075°50'4 7.6
2018-Jun-24 17:00N 39°32' W 075°45'4 8.6
2018-Jun-24 16:31N 39°33' W 075°39'4 8.5
2018-Jun-24 16:01N 39°34' W 075°34'2 4.0
2018-Jun-24 15:31N 39°36' W 075°34'3 6.6
2018-Jun-24 15:00N 39°39' W 075°33'4 7.5
2018-Jun-24 14:30N 39°42' W 075°31'4 7.2
2018-Jun-24 14:01N 39°46' W 075°29'3 6.6
2018-Jun-24 13:30N 39°48' W 075°26'3 6.6
2018-Jun-24 13:01N 39°50' W 075°22'3 5.9
2018-Jun-24 12:30N 39°51' W 075°19'3 6.6
2018-Jun-24 12:00N 39°51' W 075°15'4 7.2
2018-Jun-24 11:31N 39°53' W 075°10'3 6.2
2018-Jun-24 11:00N 39°55' W 075°08'4 7.7
2018-Jun-24 10:30N 39°59' W 075°05'2 3.7
2018-Jun-24 10:00N 39°60' W 075°04'1 1.5
2018-Jun-24 09:30N 39°59' W 075°04'1 2.8
2018-Jun-24 08:58N 39°59' W 075°06'0 0.0
2018-Jun-24 08:28N 39°59' W 075°06'0 0.0
2018-Jun-24 07:59N 39°59' W 075°06'0 0.0
2018-Jun-24 07:29N 39°59' W 075°06'0 0.0
2018-Jun-24 06:59N 39°59' W 075°06'0 0.0
2018-Jun-24 06:28N 39°59' W 075°06'0 0.0
2018-Jun-24 05:59N 39°59' W 075°06'0 0.0
2018-Jun-24 05:30N 39°59' W 075°06'0 0.0
2018-Jun-24 05:00N 39°59' W 075°06'0 0.0
2018-Jun-24 04:30N 39°59' W 075°06'0 0.0
2018-Jun-24 04:00N 39°59' W 075°06'2 3.1
2018-Jun-24 03:30N 39°59' W 075°04'1 0.2
2018-Jun-23 23:35N 39°60' W 075°04'0 0.0
2018-Jun-23 23:30N 39°60' W 075°04'1 2.5
2018-Jun-23 23:00N 39°59' W 075°04'1 2.0
2018-Jun-23 22:31N 39°59' W 075°06'0 0.0
2018-Jun-23 21:59N 39°59' W 075°06'0 0.0
2018-Jun-23 21:30N 39°59' W 075°06'0 0.0
2018-Jun-23 20:59N 39°59' W 075°06'0 0.0
2018-Jun-23 20:26N 39°59' W 075°06'0 0.0
2018-Jun-23 20:00N 39°59' W 075°06'0 0.0
2018-Jun-23 19:29N 39°59' W 075°06'0 0.0
2018-Jun-23 19:00N 39°59' W 075°06'0 0.0
2018-Jun-23 18:29N 39°59' W 075°06'0 0.0
2018-Jun-23 17:59N 39°59' W 075°06'0 0.0
2018-Jun-23 17:29N 39°59' W 075°06'0 0.0
2018-Jun-23 16:59N 39°59' W 075°06'0 0.0
2018-Jun-23 16:29N 39°59' W 075°06'0 0.0
2018-Jun-23 15:59N 39°59' W 075°06'0 0.0
2018-Jun-23 15:29N 39°59' W 075°06'0 0.0
2018-Jun-23 14:59N 39°59' W 075°06'0 0.0
2018-Jun-23 14:29N 39°59' W 075°06'0 0.0
2018-Jun-23 13:59N 39°59' W 075°06'0 0.0
2018-Jun-23 13:29N 39°59' W 075°06'0 0.0
2018-Jun-23 12:59N 39°59' W 075°06'0 0.0
2018-Jun-23 12:29N 39°59' W 075°06'0 0.0
2018-Jun-23 11:59N 39°59' W 075°06'0 0.0
2018-Jun-23 11:29N 39°59' W 075°06'0 0.0
2018-Jun-23 10:59N 39°59' W 075°06'0 0.0
2018-Jun-23 10:30N 39°59' W 075°06'1 2.0
2018-Jun-23 10:00N 39°59' W 075°04'1 2.4
2018-Jun-23 09:30N 39°60' W 075°04'0 0.0
2018-Jun-23 09:00N 39°60' W 075°04'0 0.0
2018-Jun-22 22:41N 40°00' W 075°04'0 0.0
2018-Jun-22 22:30N 40°00' W 075°04'0 0.6
2018-Jun-22 22:00N 39°60' W 075°04'3 5.1
2018-Jun-22 21:30N 39°58' W 075°06'0 0.3
2018-Jun-22 21:00N 39°58' W 075°07'0 0.9
2018-Jun-22 20:30N 39°58' W 075°07'2 3.5
2018-Jun-22 20:01N 39°57' W 075°08'1 2.4
2018-Jun-22 19:30N 39°55' W 075°08'3 5.8
2018-Jun-22 19:00N 39°53' W 075°10'4 7.2
2018-Jun-22 18:27N 39°51' W 075°15'3 7.3
2018-Jun-22 18:01N 39°51' W 075°19'3 6.8
2018-Jun-22 17:30N 39°49' W 075°23'4 7.5
2018-Jun-22 17:01N 39°47' W 075°27'4 7.4
2018-Jun-22 16:30N 39°44' W 075°30'4 7.4
2018-Jun-22 16:00N 39°41' W 075°31'4 7.5
2018-Jun-22 15:31N 39°38' W 075°34'4 7.5
2018-Jun-22 15:00N 39°34' W 075°33'3 5.8
2018-Jun-22 14:30N 39°33' W 075°36'3 5.1
2018-Jun-22 14:00N 39°33' W 075°40'2 5.0
2018-Jun-22 13:30N 39°33' W 075°43'2 5.0
2018-Jun-22 13:00N 39°32' W 075°46'2 4.8
2018-Jun-22 12:30N 39°32' W 075°49'3 5.0
2018-Jun-22 12:00N 39°31' W 075°52'4 7.7
2018-Jun-22 11:30N 39°29' W 075°57'4 8.8
2018-Jun-22 11:00N 39°26' W 076°01'4 8.9
2018-Jun-22 10:30N 39°23' W 076°05'5 9.4
2018-Jun-22 10:00N 39°21' W 076°10'5 9.0
2018-Jun-22 09:28N 39°17' W 076°14'5 9.7
2018-Jun-22 09:00N 39°12' W 076°15'5 9.3
2018-Jun-22 08:30N 39°09' W 076°19'4 8.2
2018-Jun-22 08:00N 39°05' W 076°20'5 9.6
2018-Jun-22 07:30N 39°00' W 076°23'5 9.6
2018-Jun-22 07:00N 38°56' W 076°24'5 9.8
2018-Jun-22 06:29N 38°51' W 076°25'5 9.7
2018-Jun-22 06:00N 38°46' W 076°27'  
2018-Jun-18 10:09N 38°04' W 076°15'1 8.1
2018-Jun-18 10:00N 38°06' W 076°15'4 8.0
2018-Jun-18 09:30N 38°09' W 076°16'4 8.0
2018-Jun-18 09:00N 38°13' W 076°18'4 8.2
2018-Jun-18 08:30N 38°17' W 076°19'4 8.2
2018-Jun-18 08:00N 38°21' W 076°21'4 8.3
2018-Jun-18 07:30N 38°25' W 076°22'4 8.5
2018-Jun-18 07:00N 38°29' W 076°24'4 8.8
2018-Jun-18 06:30N 38°33' W 076°27'7 8.8
2018-Jun-18 05:44N 38°40' W 076°27'2 8.7
2018-Jun-18 05:29N 38°42' W 076°27'6 8.6
2018-Jun-18 04:47N 38°48' W 076°27'3 8.4
2018-Jun-18 04:28N 38°50' W 076°26'5 8.4
2018-Jun-18 03:55N 38°55' W 076°24'4 8.4
2018-Jun-18 03:25N 38°59' W 076°23'4 7.9
2018-Jun-18 02:58N 39°02' W 076°21'42 7.7
2018-Jun-17 21:30N 39°33' W 075°44'4 8.8
2018-Jun-17 21:00N 39°33' W 075°38'4 8.1
2018-Jun-17 20:31N 39°34' W 075°33'4 7.2
2018-Jun-17 20:00N 39°38' W 075°35'4 7.1
2018-Jun-17 19:30N 39°40' W 075°32'3 6.6
2018-Jun-17 18:58N 39°44' W 075°30'6 6.2
2018-Jun-17 18:04N 39°48' W 075°26'0 6.8
2018-Jun-17 18:00N 39°48' W 075°25'3 6.4
2018-Jun-17 17:30N 39°50' W 075°22'3 6.8
2018-Jun-17 17:00N 39°51' W 075°17'4 8.1
2018-Jun-17 16:30N 39°52' W 075°13'4 8.1
2018-Jun-17 16:00N 39°54' W 075°08'4 8.1
2018-Jun-17 15:30N 39°58' W 075°07'3 5.8
2018-Jun-17 15:00N 39°60' W 075°04'0 0.0
2018-Jun-17 14:31N 39°60' W 075°04'0 0.1
2018-Jun-17 14:00N 40°00' W 075°04'0 0.0
2018-Jun-17 13:30N 40°00' W 075°04'0 0.0
2018-Jun-17 13:00N 40°00' W 075°04'0 0.0
2018-Jun-17 12:31N 40°00' W 075°04'0 0.0
2018-Jun-17 12:00N 40°00' W 075°04'0 0.0
2018-Jun-17 11:30N 40°00' W 075°04'0 0.0
2018-Jun-17 11:00N 40°00' W 075°04'0 0.0
2018-Jun-17 10:30N 40°00' W 075°04'0 0.0
2018-Jun-17 10:00N 40°00' W 075°04'0 0.0
2018-Jun-17 09:30N 40°00' W 075°04'0 0.0
2018-Jun-17 09:00N 40°00' W 075°04'0 0.0
2018-Jun-17 08:30N 40°00' W 075°04'0 0.0
2018-Jun-17 08:00N 40°00' W 075°04'0 0.0
2018-Jun-17 07:30N 40°00' W 075°04'0 0.0
2018-Jun-17 07:00N 40°00' W 075°04'0 0.0
2018-Jun-17 06:30N 40°00' W 075°04'0 0.0
2018-Jun-17 06:00N 40°00' W 075°04'0 0.0
2018-Jun-17 05:30N 40°00' W 075°04'0 0.0
2018-Jun-17 05:00N 40°00' W 075°04'0 0.0
2018-Jun-17 04:30N 40°00' W 075°04'0 0.0
2018-Jun-17 04:00N 40°00' W 075°04'0 0.0
2018-Jun-17 03:30N 40°00' W 075°04'0 0.0
2018-Jun-17 03:00N 40°00' W 075°04'0 0.0
2018-Jun-17 02:30N 40°00' W 075°04'0 0.0
2018-Jun-17 02:00N 40°00' W 075°04'0 0.0
2018-Jun-17 01:30N 40°00' W 075°04'0 0.0
2018-Jun-17 01:00N 40°00' W 075°04'0 0.0
2018-Jun-17 00:30N 40°00' W 075°04'0 0.0
2018-Jun-17 00:00N 40°00' W 075°04'0 0.0
2018-Jun-16 23:30N 40°00' W 075°04'0 0.0
2018-Jun-16 23:00N 40°00' W 075°04'0 0.0
2018-Jun-16 22:30N 40°00' W 075°04'0 0.0
2018-Jun-16 22:00N 40°00' W 075°04'0 0.0
2018-Jun-16 21:30N 40°00' W 075°04'0 0.1
2018-Jun-16 21:00N 39°60' W 075°04'0 0.0
2018-Jun-16 20:30N 39°60' W 075°04'0 0.0
2018-Jun-16 20:00N 39°60' W 075°04'0 0.0
2018-Jun-16 19:30N 39°60' W 075°04'0 0.0
2018-Jun-16 19:00N 39°60' W 075°04'0 0.0
2018-Jun-16 18:30N 39°60' W 075°04'0 0.0
2018-Jun-16 18:00N 39°60' W 075°04'0 0.0
2018-Jun-16 17:30N 39°60' W 075°04'0 0.0
2018-Jun-16 17:00N 39°60' W 075°04'0 0.0
2018-Jun-16 16:30N 39°60' W 075°04'0 0.0
2018-Jun-16 16:00N 39°60' W 075°04'0 0.1
2018-Jun-16 15:30N 40°00' W 075°04'0 0.0
2018-Jun-16 15:00N 40°00' W 075°04'0 0.0
2018-Jun-16 14:30N 40°00' W 075°04'0 0.0
2018-Jun-16 14:00N 40°00' W 075°04'0 0.0
2018-Jun-16 13:30N 40°00' W 075°04'0 0.0
2018-Jun-16 13:00N 40°00' W 075°04'0 0.0
2018-Jun-16 12:30N 40°00' W 075°04'0 0.0
2018-Jun-16 12:00N 40°00' W 075°04'0 0.0
2018-Jun-16 11:30N 40°00' W 075°04'0 0.0
2018-Jun-16 11:00N 40°00' W 075°04'0 0.0
2018-Jun-16 10:30N 40°00' W 075°04'0 0.0
2018-Jun-16 10:00N 40°00' W 075°04'0 0.0
2018-Jun-16 09:30N 40°00' W 075°04'0 0.0
2018-Jun-16 09:00N 40°00' W 075°04'0 0.0
2018-Jun-16 08:30N 40°00' W 075°04'0 0.0
2018-Jun-16 08:00N 40°00' W 075°04'0 0.0
2018-Jun-16 07:30N 40°00' W 075°04'0 0.0
2018-Jun-16 06:57N 40°00' W 075°04'0 0.0
2018-Jun-16 06:30N 40°00' W 075°04'0 0.0
2018-Jun-16 06:00N 40°00' W 075°04'0 0.0
2018-Jun-16 05:30N 40°00' W 075°04'0 0.0
2018-Jun-16 05:00N 40°00' W 075°04'0 0.0
2018-Jun-16 04:30N 40°00' W 075°04'0 0.0
2018-Jun-16 04:00N 40°00' W 075°04'0 0.0
2018-Jun-16 03:30N 40°00' W 075°04'0 0.0
2018-Jun-16 03:00N 40°00' W 075°04'0 0.0
2018-Jun-16 02:30N 40°00' W 075°04'0 0.0
2018-Jun-16 02:00N 40°00' W 075°04'0 0.0
2018-Jun-16 01:30N 40°00' W 075°04'0 0.0
2018-Jun-16 00:57N 40°00' W 075°04'0 0.0
2018-Jun-16 00:30N 40°00' W 075°04'0 0.0
2018-Jun-16 00:00N 40°00' W 075°04'0 0.0
2018-Jun-15 23:30N 40°00' W 075°04'0 0.0
2018-Jun-15 22:54N 40°00' W 075°04'0 0.0
2018-Jun-15 22:30N 40°00' W 075°04'0 0.0
2018-Jun-15 22:00N 40°00' W 075°04'0 0.0
2018-Jun-15 21:30N 40°00' W 075°04'0 0.0
2018-Jun-15 20:57N 40°00' W 075°04'0 0.0
2018-Jun-15 20:30N 40°00' W 075°04'0 0.0
2018-Jun-15 19:56N 40°00' W 075°04'0 0.0
2018-Jun-15 19:30N 40°00' W 075°04'0 0.0
2018-Jun-15 19:00N 40°00' W 075°04'0 0.0
2018-Jun-15 18:31N 40°00' W 075°04'0 0.0
2018-Jun-15 18:00N 40°00' W 075°04'0 0.0
2018-Jun-15 17:30N 40°00' W 075°04'0 0.0
2018-Jun-15 17:00N 40°00' W 075°04'4 8.1
2018-Jun-15 16:31N 39°58' W 075°08'5 9.8
2018-Jun-15 16:00N 39°53' W 075°09'1 2.3
2018-Jun-15 15:30N 39°53' W 075°11'0 0.4
2018-Jun-15 15:01N 39°53' W 075°11'0 0.0
2018-Jun-15 14:30N 39°53' W 075°11'0 0.0
2018-Jun-15 14:00N 39°53' W 075°11'1 1.3
2018-Jun-15 13:30N 39°53' W 075°11'1 1.1
2018-Jun-15 13:00N 39°53' W 075°12'0 0.0
2018-Jun-15 12:30N 39°53' W 075°12'0 0.0
2018-Jun-15 12:00N 39°53' W 075°12'0 0.0
2018-Jun-15 11:30N 39°53' W 075°12'0 0.0
2018-Jun-15 11:00N 39°53' W 075°12'1 2.7
2018-Jun-15 10:30N 39°53' W 075°10'4 8.0
2018-Jun-15 10:00N 39°57' W 075°08'5 9.6
2018-Jun-15 09:30N 39°60' W 075°04'0 0.2
2018-Jun-15 09:00N 40°00' W 075°04'0 0.0
2018-Jun-15 08:30N 40°00' W 075°04'0 0.0
2018-Jun-15 08:00N 40°00' W 075°04'0 0.0
2018-Jun-15 07:30N 40°00' W 075°04'0 0.0
2018-Jun-15 07:00N 40°00' W 075°04'0 0.0
2018-Jun-15 06:24N 40°00' W 075°04'0 0.0
2018-Jun-15 06:00N 40°00' W 075°04'0 0.0
2018-Jun-15 05:30N 40°00' W 075°04'0 0.0
2018-Jun-15 04:57N 40°00' W 075°04'0 0.0
2018-Jun-15 04:30N 40°00' W 075°04'0 0.0
2018-Jun-15 04:00N 40°00' W 075°04'0 0.0
2018-Jun-15 03:30N 40°00' W 075°04'0 0.0
2018-Jun-15 03:00N 40°00' W 075°04'0 0.0
2018-Jun-15 02:30N 40°00' W 075°04'0 0.0
2018-Jun-15 02:00N 40°00' W 075°04'0 0.0
2018-Jun-15 01:30N 40°00' W 075°04'0 0.0
2018-Jun-15 01:00N 40°00' W 075°04'0 0.0
2018-Jun-15 00:30N 40°00' W 075°04'0 0.0
2018-Jun-15 00:00N 40°00' W 075°04'0 0.0
2018-Jun-14 23:30N 40°00' W 075°04'  
Track history (hours):
 
Tides and Currents Weather Stations Pressure Air Temp Water Temp Dewpoint Dewpoint Depression Visibility Wind Speed Wind Dir Waves Ship Positions

RoSS Sea

Owner: Kirby Inland Marine, LP, Houston, TX. More information available from US FCC via Universal Licensing System and Coast Guard Vessel Documentation Center.

Last reported at 2018-Jun-24 23:24 UTC. Time now 2018-Jun-25 11:25 UTC.
Position N 38°56' W 076°24'.

Length 30 m; draft 3.8 m.

Type: . MMSI: 367334360.

Date/timePositionNaut miles runAvg speedWind from/ knotsBaromVisibWave heightAir tempDewpointWater temp
2018-Jun-24 23:24N 38°56' W 076°24'28 7.6
2018-Jun-24 19:39N 39°22' W 076°08'1 8.0
2018-Jun-24 19:28N 39°23' W 076°06'4 8.1
2018-Jun-24 19:00N 39°25' W 076°02'4 8.3
2018-Jun-24 18:30N 39°28' W 075°59'4 8.3
2018-Jun-24 18:00N 39°30' W 075°55'4 8.0
2018-Jun-24 17:30N 39°32' W 075°50'4 7.6
2018-Jun-24 17:00N 39°32' W 075°45'4 8.6
2018-Jun-24 16:31N 39°33' W 075°39'4 8.5
2018-Jun-24 16:01N 39°34' W 075°34'2 4.0
2018-Jun-24 15:31N 39°36' W 075°34'3 6.6
2018-Jun-24 15:00N 39°39' W 075°33'4 7.5
2018-Jun-24 14:30N 39°42' W 075°31'4 7.2
2018-Jun-24 14:01N 39°46' W 075°29'3 6.6
2018-Jun-24 13:30N 39°48' W 075°26'3 6.6
2018-Jun-24 13:01N 39°50' W 075°22'3 5.9
2018-Jun-24 12:30N 39°51' W 075°19'3 6.6
2018-Jun-24 12:00N 39°51' W 075°15'4 7.2
2018-Jun-24 11:31N 39°53' W 075°10'3 6.2
2018-Jun-24 11:00N 39°55' W 075°08'4 7.7
2018-Jun-24 10:30N 39°59' W 075°05'2 3.7
2018-Jun-24 10:00N 39°60' W 075°04'1 1.5
2018-Jun-24 09:30N 39°59' W 075°04'1 2.8
2018-Jun-24 08:58N 39°59' W 075°06'0 0.0
2018-Jun-24 08:28N 39°59' W 075°06'0 0.0
2018-Jun-24 07:59N 39°59' W 075°06'0 0.0
2018-Jun-24 07:29N 39°59' W 075°06'0 0.0
2018-Jun-24 06:59N 39°59' W 075°06'0 0.0
2018-Jun-24 06:28N 39°59' W 075°06'0 0.0
2018-Jun-24 05:59N 39°59' W 075°06'0 0.0
2018-Jun-24 05:30N 39°59' W 075°06'0 0.0
2018-Jun-24 05:00N 39°59' W 075°06'0 0.0
2018-Jun-24 04:30N 39°59' W 075°06'0 0.0
2018-Jun-24 04:00N 39°59' W 075°06'2 3.1
2018-Jun-24 03:30N 39°59' W 075°04'1 0.2
2018-Jun-23 23:35N 39°60' W 075°04'0 0.0
2018-Jun-23 23:30N 39°60' W 075°04'1 2.5
2018-Jun-23 23:00N 39°59' W 075°04'1 2.0
2018-Jun-23 22:31N 39°59' W 075°06'0 0.0
2018-Jun-23 21:59N 39°59' W 075°06'0 0.0
2018-Jun-23 21:30N 39°59' W 075°06'0 0.0
2018-Jun-23 20:59N 39°59' W 075°06'0 0.0
2018-Jun-23 20:26N 39°59' W 075°06'0 0.0
2018-Jun-23 20:00N 39°59' W 075°06'0 0.0
2018-Jun-23 19:29N 39°59' W 075°06'0 0.0
2018-Jun-23 19:00N 39°59' W 075°06'0 0.0
2018-Jun-23 18:29N 39°59' W 075°06'0 0.0
2018-Jun-23 17:59N 39°59' W 075°06'0 0.0
2018-Jun-23 17:29N 39°59' W 075°06'0 0.0
2018-Jun-23 16:59N 39°59' W 075°06'0 0.0
2018-Jun-23 16:29N 39°59' W 075°06'0 0.0
2018-Jun-23 15:59N 39°59' W 075°06'0 0.0
2018-Jun-23 15:29N 39°59' W 075°06'0 0.0
2018-Jun-23 14:59N 39°59' W 075°06'0 0.0
2018-Jun-23 14:29N 39°59' W 075°06'0 0.0
2018-Jun-23 13:59N 39°59' W 075°06'0 0.0
2018-Jun-23 13:29N 39°59' W 075°06'0 0.0
2018-Jun-23 12:59N 39°59' W 075°06'0 0.0
2018-Jun-23 12:29N 39°59' W 075°06'0 0.0
2018-Jun-23 11:59N 39°59' W 075°06'0 0.0
2018-Jun-23 11:29N 39°59' W 075°06'0 0.0
2018-Jun-23 10:59N 39°59' W 075°06'0 0.0
2018-Jun-23 10:30N 39°59' W 075°06'1 2.0
2018-Jun-23 10:00N 39°59' W 075°04'1 2.4
2018-Jun-23 09:30N 39°60' W 075°04'0 0.0
2018-Jun-23 09:00N 39°60' W 075°04'0 0.0
2018-Jun-22 22:41N 40°00' W 075°04'0 0.0
2018-Jun-22 22:30N 40°00' W 075°04'0 0.6
2018-Jun-22 22:00N 39°60' W 075°04'3 5.1
2018-Jun-22 21:30N 39°58' W 075°06'0 0.3
2018-Jun-22 21:00N 39°58' W 075°07'0 0.9
2018-Jun-22 20:30N 39°58' W 075°07'2 3.5
2018-Jun-22 20:01N 39°57' W 075°08'1 2.4
2018-Jun-22 19:30N 39°55' W 075°08'3 5.8
2018-Jun-22 19:00N 39°53' W 075°10'4 7.2
2018-Jun-22 18:27N 39°51' W 075°15'3 7.3
2018-Jun-22 18:01N 39°51' W 075°19'3 6.8
2018-Jun-22 17:30N 39°49' W 075°23'4 7.5
2018-Jun-22 17:01N 39°47' W 075°27'4 7.4
2018-Jun-22 16:30N 39°44' W 075°30'4 7.4
2018-Jun-22 16:00N 39°41' W 075°31'4 7.5
2018-Jun-22 15:31N 39°38' W 075°34'4 7.5
2018-Jun-22 15:00N 39°34' W 075°33'3 5.8
2018-Jun-22 14:30N 39°33' W 075°36'3 5.1
2018-Jun-22 14:00N 39°33' W 075°40'2 5.0
2018-Jun-22 13:30N 39°33' W 075°43'2 5.0
2018-Jun-22 13:00N 39°32' W 075°46'2 4.8
2018-Jun-22 12:30N 39°32' W 075°49'3 5.0
2018-Jun-22 12:00N 39°31' W 075°52'4 7.7
2018-Jun-22 11:30N 39°29' W 075°57'4 8.8
2018-Jun-22 11:00N 39°26' W 076°01'4 8.9
2018-Jun-22 10:30N 39°23' W 076°05'5 9.4
2018-Jun-22 10:00N 39°21' W 076°10'5 9.0
2018-Jun-22 09:28N 39°17' W 076°14'5 9.7
2018-Jun-22 09:00N 39°12' W 076°15'5 9.3
2018-Jun-22 08:30N 39°09' W 076°19'4 8.2
2018-Jun-22 08:00N 39°05' W 076°20'5 9.6
2018-Jun-22 07:30N 39°00' W 076°23'5 9.6
2018-Jun-22 07:00N 38°56' W 076°24'5 9.8
2018-Jun-22 06:29N 38°51' W 076°25'5 9.7
2018-Jun-22 06:00N 38°46' W 076°27'  
2018-Jun-18 10:09N 38°04' W 076°15'1 8.1
2018-Jun-18 10:00N 38°06' W 076°15'4 8.0
2018-Jun-18 09:30N 38°09' W 076°16'4 8.0
2018-Jun-18 09:00N 38°13' W 076°18'4 8.2
2018-Jun-18 08:30N 38°17' W 076°19'4 8.2
2018-Jun-18 08:00N 38°21' W 076°21'4 8.3
2018-Jun-18 07:30N 38°25' W 076°22'4 8.5
2018-Jun-18 07:00N 38°29' W 076°24'4 8.8
2018-Jun-18 06:30N 38°33' W 076°27'7 8.8
2018-Jun-18 05:44N 38°40' W 076°27'2 8.7
2018-Jun-18 05:29N 38°42' W 076°27'6 8.6
2018-Jun-18 04:47N 38°48' W 076°27'3 8.4
2018-Jun-18 04:28N 38°50' W 076°26'5 8.4
2018-Jun-18 03:55N 38°55' W 076°24'4 8.4
2018-Jun-18 03:25N 38°59' W 076°23'4 7.9
2018-Jun-18 02:58N 39°02' W 076°21'42 7.7
2018-Jun-17 21:30N 39°33' W 075°44'4 8.8
2018-Jun-17 21:00N 39°33' W 075°38'4 8.1
2018-Jun-17 20:31N 39°34' W 075°33'4 7.2
2018-Jun-17 20:00N 39°38' W 075°35'4 7.1
2018-Jun-17 19:30N 39°40' W 075°32'3 6.6
2018-Jun-17 18:58N 39°44' W 075°30'6 6.2
2018-Jun-17 18:04N 39°48' W 075°26'0 6.8
2018-Jun-17 18:00N 39°48' W 075°25'3 6.4
2018-Jun-17 17:30N 39°50' W 075°22'3 6.8
2018-Jun-17 17:00N 39°51' W 075°17'4 8.1
2018-Jun-17 16:30N 39°52' W 075°13'4 8.1
2018-Jun-17 16:00N 39°54' W 075°08'4 8.1
2018-Jun-17 15:30N 39°58' W 075°07'3 5.8
2018-Jun-17 15:00N 39°60' W 075°04'0 0.0
2018-Jun-17 14:31N 39°60' W 075°04'0 0.1
2018-Jun-17 14:00N 40°00' W 075°04'0 0.0
2018-Jun-17 13:30N 40°00' W 075°04'0 0.0
2018-Jun-17 13:00N 40°00' W 075°04'0 0.0
2018-Jun-17 12:31N 40°00' W 075°04'0 0.0
2018-Jun-17 12:00N 40°00' W 075°04'0 0.0
2018-Jun-17 11:30N 40°00' W 075°04'0 0.0
2018-Jun-17 11:00N 40°00' W 075°04'0 0.0
2018-Jun-17 10:30N 40°00' W 075°04'0 0.0
2018-Jun-17 10:00N 40°00' W 075°04'0 0.0
2018-Jun-17 09:30N 40°00' W 075°04'0 0.0
2018-Jun-17 09:00N 40°00' W 075°04'0 0.0
2018-Jun-17 08:30N 40°00' W 075°04'0 0.0
2018-Jun-17 08:00N 40°00' W 075°04'0 0.0
2018-Jun-17 07:30N 40°00' W 075°04'0 0.0
2018-Jun-17 07:00N 40°00' W 075°04'0 0.0
2018-Jun-17 06:30N 40°00' W 075°04'0 0.0
2018-Jun-17 06:00N 40°00' W 075°04'0 0.0
2018-Jun-17 05:30N 40°00' W 075°04'0 0.0
2018-Jun-17 05:00N 40°00' W 075°04'0 0.0
2018-Jun-17 04:30N 40°00' W 075°04'0 0.0
2018-Jun-17 04:00N 40°00' W 075°04'0 0.0
2018-Jun-17 03:30N 40°00' W 075°04'0 0.0
2018-Jun-17 03:00N 40°00' W 075°04'0 0.0
2018-Jun-17 02:30N 40°00' W 075°04'0 0.0
2018-Jun-17 02:00N 40°00' W 075°04'0 0.0
2018-Jun-17 01:30N 40°00' W 075°04'0 0.0
2018-Jun-17 01:00N 40°00' W 075°04'0 0.0
2018-Jun-17 00:30N 40°00' W 075°04'0 0.0
2018-Jun-17 00:00N 40°00' W 075°04'0 0.0
2018-Jun-16 23:30N 40°00' W 075°04'0 0.0
2018-Jun-16 23:00N 40°00' W 075°04'0 0.0
2018-Jun-16 22:30N 40°00' W 075°04'0 0.0
2018-Jun-16 22:00N 40°00' W 075°04'0 0.0
2018-Jun-16 21:30N 40°00' W 075°04'0 0.1
2018-Jun-16 21:00N 39°60' W 075°04'0 0.0
2018-Jun-16 20:30N 39°60' W 075°04'0 0.0
2018-Jun-16 20:00N 39°60' W 075°04'0 0.0
2018-Jun-16 19:30N 39°60' W 075°04'0 0.0
2018-Jun-16 19:00N 39°60' W 075°04'0 0.0
2018-Jun-16 18:30N 39°60' W 075°04'0 0.0
2018-Jun-16 18:00N 39°60' W 075°04'0 0.0
2018-Jun-16 17:30N 39°60' W 075°04'0 0.0
2018-Jun-16 17:00N 39°60' W 075°04'0 0.0
2018-Jun-16 16:30N 39°60' W 075°04'0 0.0
2018-Jun-16 16:00N 39°60' W 075°04'0 0.1
2018-Jun-16 15:30N 40°00' W 075°04'0 0.0
2018-Jun-16 15:00N 40°00' W 075°04'0 0.0
2018-Jun-16 14:30N 40°00' W 075°04'0 0.0
2018-Jun-16 14:00N 40°00' W 075°04'0 0.0
2018-Jun-16 13:30N 40°00' W 075°04'0 0.0
2018-Jun-16 13:00N 40°00' W 075°04'0 0.0
2018-Jun-16 12:30N 40°00' W 075°04'0 0.0
2018-Jun-16 12:00N 40°00' W 075°04'0 0.0
2018-Jun-16 11:30N 40°00' W 075°04'0 0.0
2018-Jun-16 11:00N 40°00' W 075°04'0 0.0
2018-Jun-16 10:30N 40°00' W 075°04'0 0.0
2018-Jun-16 10:00N 40°00' W 075°04'0 0.0
2018-Jun-16 09:30N 40°00' W 075°04'0 0.0
2018-Jun-16 09:00N 40°00' W 075°04'0 0.0
2018-Jun-16 08:30N 40°00' W 075°04'0 0.0
2018-Jun-16 08:00N 40°00' W 075°04'0 0.0
2018-Jun-16 07:30N 40°00' W 075°04'0 0.0
2018-Jun-16 06:57N 40°00' W 075°04'0 0.0
2018-Jun-16 06:30N 40°00' W 075°04'0 0.0
2018-Jun-16 06:00N 40°00' W 075°04'0 0.0
2018-Jun-16 05:30N 40°00' W 075°04'0 0.0
2018-Jun-16 05:00N 40°00' W 075°04'0 0.0
2018-Jun-16 04:30N 40°00' W 075°04'0 0.0
2018-Jun-16 04:00N 40°00' W 075°04'0 0.0
2018-Jun-16 03:30N 40°00' W 075°04'0 0.0
2018-Jun-16 03:00N 40°00' W 075°04'0 0.0
2018-Jun-16 02:30N 40°00' W 075°04'0 0.0
2018-Jun-16 02:00N 40°00' W 075°04'0 0.0
2018-Jun-16 01:30N 40°00' W 075°04'0 0.0
2018-Jun-16 00:57N 40°00' W 075°04'0 0.0
2018-Jun-16 00:30N 40°00' W 075°04'0 0.0
2018-Jun-16 00:00N 40°00' W 075°04'0 0.0
2018-Jun-15 23:30N 40°00' W 075°04'0 0.0
2018-Jun-15 22:54N 40°00' W 075°04'0 0.0
2018-Jun-15 22:30N 40°00' W 075°04'0 0.0
2018-Jun-15 22:00N 40°00' W 075°04'0 0.0
2018-Jun-15 21:30N 40°00' W 075°04'0 0.0
2018-Jun-15 20:57N 40°00' W 075°04'0 0.0
2018-Jun-15 20:30N 40°00' W 075°04'0 0.0
2018-Jun-15 19:56N 40°00' W 075°04'0 0.0
2018-Jun-15 19:30N 40°00' W 075°04'0 0.0
2018-Jun-15 19:00N 40°00' W 075°04'0 0.0
2018-Jun-15 18:31N 40°00' W 075°04'0 0.0
2018-Jun-15 18:00N 40°00' W 075°04'0 0.0
2018-Jun-15 17:30N 40°00' W 075°04'0 0.0
2018-Jun-15 17:00N 40°00' W 075°04'4 8.1
2018-Jun-15 16:31N 39°58' W 075°08'5 9.8
2018-Jun-15 16:00N 39°53' W 075°09'1 2.3
2018-Jun-15 15:30N 39°53' W 075°11'0 0.4
2018-Jun-15 15:01N 39°53' W 075°11'0 0.0
2018-Jun-15 14:30N 39°53' W 075°11'0 0.0
2018-Jun-15 14:00N 39°53' W 075°11'1 1.3
2018-Jun-15 13:30N 39°53' W 075°11'1 1.1
2018-Jun-15 13:00N 39°53' W 075°12'0 0.0
2018-Jun-15 12:30N 39°53' W 075°12'0 0.0
2018-Jun-15 12:00N 39°53' W 075°12'0 0.0
2018-Jun-15 11:30N 39°53' W 075°12'0 0.0
2018-Jun-15 11:00N 39°53' W 075°12'1 2.7
2018-Jun-15 10:30N 39°53' W 075°10'4 8.0
2018-Jun-15 10:00N 39°57' W 075°08'5 9.6
2018-Jun-15 09:30N 39°60' W 075°04'0 0.2
2018-Jun-15 09:00N 40°00' W 075°04'0 0.0
2018-Jun-15 08:30N 40°00' W 075°04'0 0.0
2018-Jun-15 08:00N 40°00' W 075°04'0 0.0
2018-Jun-15 07:30N 40°00' W 075°04'0 0.0
2018-Jun-15 07:00N 40°00' W 075°04'0 0.0
2018-Jun-15 06:24N 40°00' W 075°04'0 0.0
2018-Jun-15 06:00N 40°00' W 075°04'0 0.0
2018-Jun-15 05:30N 40°00' W 075°04'0 0.0
2018-Jun-15 04:57N 40°00' W 075°04'0 0.0
2018-Jun-15 04:30N 40°00' W 075°04'0 0.0
2018-Jun-15 04:00N 40°00' W 075°04'0 0.0
2018-Jun-15 03:30N 40°00' W 075°04'0 0.0
2018-Jun-15 03:00N 40°00' W 075°04'0 0.0
2018-Jun-15 02:30N 40°00' W 075°04'0 0.0
2018-Jun-15 02:00N 40°00' W 075°04'0 0.0
2018-Jun-15 01:30N 40°00' W 075°04'0 0.0
2018-Jun-15 01:00N 40°00' W 075°04'0 0.0
2018-Jun-15 00:30N 40°00' W 075°04'0 0.0
2018-Jun-15 00:00N 40°00' W 075°04'0 0.0
2018-Jun-14 23:30N 40°00' W 075°04'  

Dump ship's entire track history